sensor_id;sensor_type;location;lat;lon;timestamp;pressure;altitude;pressure_sealevel;temperature;humidity
41690;BME280;27372;42.658;23.256;2023-03-03T00:01:58;93786.59;;;4.16;90.78
41690;BME280;27372;42.658;23.256;2023-03-03T00:04:24;93803.59;;;4.26;90.38
41690;BME280;27372;42.658;23.256;2023-03-03T00:06:49;93796.59;;;4.26;90.28
41690;BME280;27372;42.658;23.256;2023-03-03T00:09:15;93799.63;;;4.37;90.22
41690;BME280;27372;42.658;23.256;2023-03-03T00:11:40;93787.41;;;4.24;90.12
41690;BME280;27372;42.658;23.256;2023-03-03T00:14:17;93788.59;;;4.34;89.77
41690;BME280;27372;42.658;23.256;2023-03-03T00:16:44;93792.00;;;4.22;89.78
41690;BME280;27372;42.658;23.256;2023-03-03T00:19:17;93790.78;;;4.24;90.45
41690;BME280;27372;42.658;23.256;2023-03-03T00:21:56;93785.41;;;4.26;90.61
41690;BME280;27372;42.658;23.256;2023-03-03T00:27:00;93783.19;;;4.23;90.46
41690;BME280;27372;42.658;23.256;2023-03-03T00:34:43;93781.28;;;3.89;92.42
41690;BME280;27372;42.658;23.256;2023-03-03T00:37:33;93776.25;;;3.81;93.84
41690;BME280;27372;42.658;23.256;2023-03-03T00:40:37;93766.66;;;3.82;93.94
41690;BME280;27372;42.658;23.256;2023-03-03T00:43:21;93755.66;;;3.73;93.99
41690;BME280;27372;42.658;23.256;2023-03-03T00:45:53;93766.66;;;3.75;94.17
41690;BME280;27372;42.658;23.256;2023-03-03T00:50:55;93763.16;;;4.03;93.69
41690;BME280;27372;42.658;23.256;2023-03-03T00:53:23;93743.69;;;3.79;93.69
41690;BME280;27372;42.658;23.256;2023-03-03T00:55:50;93743.69;;;3.79;93.69
41690;BME280;27372;42.658;23.256;2023-03-03T00:58:16;93750.69;;;3.85;93.86
41690;BME280;27372;42.658;23.256;2023-03-03T01:00:42;93748.47;;;3.75;94.31
41690;BME280;27372;42.658;23.256;2023-03-03T01:03:12;93743.31;;;3.95;93.79
41690;BME280;27372;42.658;23.256;2023-03-03T01:05:38;93738.72;;;3.91;93.71
41690;BME280;27372;42.658;23.256;2023-03-03T01:08:07;93730.56;;;4.07;93.00
41690;BME280;27372;42.658;23.256;2023-03-03T01:10:35;93733.69;;;3.82;93.00
41690;BME280;27372;42.658;23.256;2023-03-03T01:13:02;93739.09;;;3.87;93.05
41690;BME280;27372;42.658;23.256;2023-03-03T01:15:27;93735.63;;;3.67;95.17
41690;BME280;27372;42.658;23.256;2023-03-03T01:17:54;93736.66;;;3.72;94.53
41690;BME280;27372;42.658;23.256;2023-03-03T01:20:20;93729.28;;;3.83;94.57
41690;BME280;27372;42.658;23.256;2023-03-03T01:22:45;93733.13;;;3.94;94.54
41690;BME280;27372;42.658;23.256;2023-03-03T01:25:11;93739.53;;;3.98;93.98
41690;BME280;27372;42.658;23.256;2023-03-03T01:27:37;93739.75;;;4.03;93.21
41690;BME280;27372;42.658;23.256;2023-03-03T01:30:05;93736.34;;;4.09;93.34
41690;BME280;27372;42.658;23.256;2023-03-03T01:32:31;93722.59;;;4.15;92.85
41690;BME280;27372;42.658;23.256;2023-03-03T01:34:57;93731.81;;;4.25;92.37
41690;BME280;27372;42.658;23.256;2023-03-03T01:37:22;93736.22;;;4.44;91.53
41690;BME280;27372;42.658;23.256;2023-03-03T01:39:57;93722.59;;;4.29;90.97
41690;BME280;27372;42.658;23.256;2023-03-03T01:42:22;93735.59;;;4.22;90.97
41690;BME280;27372;42.658;23.256;2023-03-03T01:47:37;93714.63;;;4.30;90.96
41690;BME280;27372;42.658;23.256;2023-03-03T01:50:05;93715.59;;;4.49;90.57
41690;BME280;27372;42.658;23.256;2023-03-03T01:52:40;93724.81;;;4.59;89.84
41690;BME280;27372;42.658;23.256;2023-03-03T01:55:33;93712.81;;;4.38;90.17
41690;BME280;27372;42.658;23.256;2023-03-03T01:58:16;93722.22;;;4.39;90.12
41690;BME280;27372;42.658;23.256;2023-03-03T02:00:52;93719.22;;;4.35;90.04
41690;BME280;27372;42.658;23.256;2023-03-03T02:03:20;93716.81;;;4.40;90.00
41690;BME280;27372;42.658;23.256;2023-03-03T02:05:47;93712.19;;;4.35;90.41
41690;BME280;27372;42.658;23.256;2023-03-03T02:08:15;93710.81;;;4.33;90.39
41690;BME280;27372;42.658;23.256;2023-03-03T02:10:45;93717.03;;;4.39;90.21
41690;BME280;27372;42.658;23.256;2023-03-03T02:15:46;93714.19;;;4.33;90.54
41690;BME280;27372;42.658;23.256;2023-03-03T02:18:19;93694.59;;;4.31;90.31
41690;BME280;27372;42.658;23.256;2023-03-03T02:20:53;93710.00;;;4.26;90.80
41690;BME280;27372;42.658;23.256;2023-03-03T02:23:30;93706.22;;;4.28;90.71
41690;BME280;27372;42.658;23.256;2023-03-03T02:26:23;93708.81;;;4.55;90.06
41690;BME280;27372;42.658;23.256;2023-03-03T02:28:49;93724.84;;;4.52;89.46
41690;BME280;27372;42.658;23.256;2023-03-03T02:31:18;93709.63;;;4.62;89.96
41690;BME280;27372;42.658;23.256;2023-03-03T02:33:46;93704.41;;;4.49;89.40
41690;BME280;27372;42.658;23.256;2023-03-03T02:36:23;93700.81;;;4.43;90.03
41690;BME280;27372;42.658;23.256;2023-03-03T02:38:58;93705.00;;;4.71;90.08
41690;BME280;27372;42.658;23.256;2023-03-03T02:43:57;93713.41;;;4.66;90.36
41690;BME280;27372;42.658;23.256;2023-03-03T02:46:23;93713.22;;;4.41;91.02
41690;BME280;27372;42.658;23.256;2023-03-03T02:48:49;93709.81;;;4.47;91.08
41690;BME280;27372;42.658;23.256;2023-03-03T02:51:14;93715.78;;;4.28;91.84
41690;BME280;27372;42.658;23.256;2023-03-03T02:53:40;93712.22;;;4.22;91.87
41690;BME280;27372;42.658;23.256;2023-03-03T02:56:06;93709.56;;;4.09;92.80
41690;BME280;27372;42.658;23.256;2023-03-03T02:58:34;93714.78;;;4.09;93.40
41690;BME280;27372;42.658;23.256;2023-03-03T03:00:59;93712.16;;;4.02;93.79
41690;BME280;27372;42.658;23.256;2023-03-03T03:03:25;93697.59;;;4.08;93.98
41690;BME280;27372;42.658;23.256;2023-03-03T03:05:50;93694.16;;;3.94;93.98
41690;BME280;27372;42.658;23.256;2023-03-03T03:08:16;93703.53;;;3.88;94.28
41690;BME280;27372;42.658;23.256;2023-03-03T03:10:44;93694.75;;;3.89;94.23
41690;BME280;27372;42.658;23.256;2023-03-03T03:13:09;93707.13;;;3.87;95.03
41690;BME280;27372;42.658;23.256;2023-03-03T03:15:36;93703.34;;;3.96;94.91
41690;BME280;27372;42.658;23.256;2023-03-03T03:18:02;93698.97;;;3.97;95.27
41690;BME280;27372;42.658;23.256;2023-03-03T03:20:28;93709.94;;;3.92;95.28
41690;BME280;27372;42.658;23.256;2023-03-03T03:22:53;93702.13;;;3.92;95.80
41690;BME280;27372;42.658;23.256;2023-03-03T03:25:18;93696.34;;;3.90;95.55
41690;BME280;27372;42.658;23.256;2023-03-03T03:27:44;93695.38;;;4.04;95.37
41690;BME280;27372;42.658;23.256;2023-03-03T03:30:10;93700.31;;;3.79;96.01
41690;BME280;27372;42.658;23.256;2023-03-03T03:32:38;93688.28;;;3.71;96.55
41690;BME280;27372;42.658;23.256;2023-03-03T03:35:04;93689.91;;;3.66;95.94
41690;BME280;27372;42.658;23.256;2023-03-03T03:37:30;93693.84;;;3.55;97.47
41690;BME280;27372;42.658;23.256;2023-03-03T03:39:58;93690.28;;;3.63;97.05
41690;BME280;27372;42.658;23.256;2023-03-03T03:42:23;93685.47;;;3.60;97.38
41690;BME280;27372;42.658;23.256;2023-03-03T03:44:49;93687.84;;;3.54;97.46
41690;BME280;27372;42.658;23.256;2023-03-03T03:47:15;93686.03;;;3.48;98.00
41690;BME280;27372;42.658;23.256;2023-03-03T03:49:41;93689.81;;;3.46;98.00
41690;BME280;27372;42.658;23.256;2023-03-03T03:52:06;93689.78;;;3.39;98.99
41690;BME280;27372;42.658;23.256;2023-03-03T03:54:32;93685.41;;;3.46;98.97
41690;BME280;27372;42.658;23.256;2023-03-03T03:56:57;93674.66;;;3.49;98.39
41690;BME280;27372;42.658;23.256;2023-03-03T03:59:22;93673.44;;;3.52;98.43
41690;BME280;27372;42.658;23.256;2023-03-03T04:01:48;93673.03;;;3.48;98.19
41690;BME280;27372;42.658;23.256;2023-03-03T04:04:14;93672.63;;;3.45;98.33
41690;BME280;27372;42.658;23.256;2023-03-03T04:06:43;93669.03;;;3.46;98.01
41690;BME280;27372;42.658;23.256;2023-03-03T04:09:09;93679.28;;;3.61;98.05
41690;BME280;27372;42.658;23.256;2023-03-03T04:11:34;93673.06;;;3.55;97.91
41690;BME280;27372;42.658;23.256;2023-03-03T04:14:03;93677.91;;;3.65;98.53
41690;BME280;27372;42.658;23.256;2023-03-03T04:16:28;93680.47;;;3.58;97.35
41690;BME280;27372;42.658;23.256;2023-03-03T04:18:54;93671.50;;;3.67;97.32
41690;BME280;27372;42.658;23.256;2023-03-03T04:21:19;93672.53;;;3.73;96.75
41690;BME280;27372;42.658;23.256;2023-03-03T04:23:51;93666.75;;;3.78;96.99
41690;BME280;27372;42.658;23.256;2023-03-03T04:26:29;93680.31;;;3.73;96.85
41690;BME280;27372;42.658;23.256;2023-03-03T04:28:56;93662.28;;;3.58;97.08
41690;BME280;27372;42.658;23.256;2023-03-03T04:31:23;93660.84;;;3.42;97.93
41690;BME280;27372;42.658;23.256;2023-03-03T04:33:50;93678.75;;;3.85;97.35
41690;BME280;27372;42.658;23.256;2023-03-03T04:36:16;93676.53;;;3.76;97.22
41690;BME280;27372;42.658;23.256;2023-03-03T04:38:41;93662.91;;;3.73;96.89
41690;BME280;27372;42.658;23.256;2023-03-03T04:41:07;93674.75;;;3.89;96.04
41690;BME280;27372;42.658;23.256;2023-03-03T04:43:32;93665.75;;;3.85;96.22
41690;BME280;27372;42.658;23.256;2023-03-03T04:45:58;93674.75;;;3.96;96.04
41690;BME280;27372;42.658;23.256;2023-03-03T04:48:23;93680.59;;;4.12;95.78
41690;BME280;27372;42.658;23.256;2023-03-03T04:50:49;93668.19;;;4.14;95.23
41690;BME280;27372;42.658;23.256;2023-03-03T04:53:14;93674.59;;;4.11;95.30
41690;BME280;27372;42.658;23.256;2023-03-03T04:55:40;93672.81;;;4.12;95.20
41690;BME280;27372;42.658;23.256;2023-03-03T04:58:05;93678.59;;;4.20;94.42
41690;BME280;27372;42.658;23.256;2023-03-03T05:00:31;93665.56;;;4.07;95.52
41690;BME280;27372;42.658;23.256;2023-03-03T05:02:57;93667.19;;;4.08;94.79
41690;BME280;27372;42.658;23.256;2023-03-03T05:05:23;93669.19;;;4.26;93.53
41690;BME280;27372;42.658;23.256;2023-03-03T05:07:49;93662.78;;;4.09;93.78
41690;BME280;27372;42.658;23.256;2023-03-03T05:10:14;93672.78;;;4.25;94.39
41690;BME280;27372;42.658;23.256;2023-03-03T05:12:40;93675.81;;;4.22;93.62
41690;BME280;27372;42.658;23.256;2023-03-03T05:15:06;93675.00;;;4.15;94.40
41690;BME280;27372;42.658;23.256;2023-03-03T05:17:31;93685.63;;;4.27;93.79
41690;BME280;27372;42.658;23.256;2023-03-03T05:20:06;93681.00;;;4.22;94.08
41690;BME280;27372;42.658;23.256;2023-03-03T05:22:33;93679.38;;;4.28;93.90
41690;BME280;27372;42.658;23.256;2023-03-03T05:25:00;93682.59;;;4.23;93.95
41690;BME280;27372;42.658;23.256;2023-03-03T05:27:26;93686.03;;;4.37;94.30
41690;BME280;27372;42.658;23.256;2023-03-03T05:29:51;93679.78;;;4.38;93.80
41690;BME280;27372;42.658;23.256;2023-03-03T05:32:16;93688.19;;;4.33;93.76
41690;BME280;27372;42.658;23.256;2023-03-03T05:34:42;93689.00;;;4.34;92.92
41690;BME280;27372;42.658;23.256;2023-03-03T05:37:07;93691.81;;;4.39;93.32
41690;BME280;27372;42.658;23.256;2023-03-03T05:39:34;93687.81;;;4.43;93.07
41690;BME280;27372;42.658;23.256;2023-03-03T05:41:59;93682.59;;;4.37;93.04
41690;BME280;27372;42.658;23.256;2023-03-03T05:44:26;93687.00;;;4.43;92.93
41690;BME280;27372;42.658;23.256;2023-03-03T05:46:51;93684.59;;;4.41;93.02
41690;BME280;27372;42.658;23.256;2023-03-03T05:49:17;93703.03;;;4.46;92.98
41690;BME280;27372;42.658;23.256;2023-03-03T05:51:42;93702.81;;;4.48;91.61
41690;BME280;27372;42.658;23.256;2023-03-03T05:54:08;93701.00;;;4.55;92.99
41690;BME280;27372;42.658;23.256;2023-03-03T05:56:34;93700.22;;;4.61;92.47
41690;BME280;27372;42.658;23.256;2023-03-03T05:58:59;93694.59;;;4.64;91.57
41690;BME280;27372;42.658;23.256;2023-03-03T06:01:25;93691.59;;;4.54;92.07
41690;BME280;27372;42.658;23.256;2023-03-03T06:03:52;93689.81;;;4.48;92.42
41690;BME280;27372;42.658;23.256;2023-03-03T06:06:17;93703.59;;;4.62;92.24
41690;BME280;27372;42.658;23.256;2023-03-03T06:08:44;93704.22;;;4.50;92.18
41690;BME280;27372;42.658;23.256;2023-03-03T06:11:10;93707.03;;;4.62;92.07
41690;BME280;27372;42.658;23.256;2023-03-03T06:13:36;93695.81;;;4.48;91.56
41690;BME280;27372;42.658;23.256;2023-03-03T06:16:01;93697.63;;;4.55;91.81
41690;BME280;27372;42.658;23.256;2023-03-03T06:18:27;93695.19;;;4.60;91.90
41690;BME280;27372;42.658;23.256;2023-03-03T06:20:53;93699.63;;;4.53;91.06
41690;BME280;27372;42.658;23.256;2023-03-03T06:23:20;93698.59;;;4.33;92.60
41690;BME280;27372;42.658;23.256;2023-03-03T06:25:45;93697.22;;;4.38;92.13
41690;BME280;27372;42.658;23.256;2023-03-03T06:28:12;93696.81;;;4.54;92.30
41690;BME280;27372;42.658;23.256;2023-03-03T06:30:37;93702.00;;;4.74;91.47
41690;BME280;27372;42.658;23.256;2023-03-03T06:33:03;93710.41;;;4.83;91.56
41690;BME280;27372;42.658;23.256;2023-03-03T06:35:29;93716.59;;;4.89;91.47
41690;BME280;27372;42.658;23.256;2023-03-03T06:37:54;93715.03;;;4.47;93.95
41690;BME280;27372;42.658;23.256;2023-03-03T06:40:20;93706.81;;;4.64;93.52
41690;BME280;27372;42.658;23.256;2023-03-03T06:42:45;93713.22;;;4.55;92.76
41690;BME280;27372;42.658;23.256;2023-03-03T06:45:11;93716.00;;;4.66;92.55
41690;BME280;27372;42.658;23.256;2023-03-03T06:47:37;93711.00;;;4.51;92.97
41690;BME280;27372;42.658;23.256;2023-03-03T06:50:02;93711.81;;;4.32;93.38
41690;BME280;27372;42.658;23.256;2023-03-03T06:52:28;93719.03;;;4.57;92.95
41690;BME280;27372;42.658;23.256;2023-03-03T06:54:56;93710.41;;;4.43;91.91
41690;BME280;27372;42.658;23.256;2023-03-03T06:57:30;93706.63;;;4.52;92.84
41690;BME280;27372;42.658;23.256;2023-03-03T07:00:04;93716.84;;;4.67;93.56
41690;BME280;27372;42.658;23.256;2023-03-03T07:02:34;93717.00;;;4.86;92.70
41690;BME280;27372;42.658;23.256;2023-03-03T07:05:00;93714.19;;;4.80;92.20
41690;BME280;27372;42.658;23.256;2023-03-03T07:07:26;93718.63;;;4.80;91.48
41690;BME280;27372;42.658;23.256;2023-03-03T07:09:54;93724.00;;;4.98;91.22
41690;BME280;27372;42.658;23.256;2023-03-03T07:12:22;93725.41;;;4.94;91.66
41690;BME280;27372;42.658;23.256;2023-03-03T07:14:57;93716.00;;;4.87;91.49
41690;BME280;27372;42.658;23.256;2023-03-03T07:17:26;93721.00;;;5.02;90.61
41690;BME280;27372;42.658;23.256;2023-03-03T07:19:51;93722.78;;;5.15;90.51
41690;BME280;27372;42.658;23.256;2023-03-03T07:22:18;93725.00;;;5.11;90.66
41690;BME280;27372;42.658;23.256;2023-03-03T07:24:46;93720.16;;;5.15;90.47
41690;BME280;27372;42.658;23.256;2023-03-03T07:27:25;93730.97;;;5.18;90.90
41690;BME280;27372;42.658;23.256;2023-03-03T07:30:08;93716.56;;;5.09;90.65
41690;BME280;27372;42.658;23.256;2023-03-03T07:32:46;93716.41;;;4.97;91.04
41690;BME280;27372;42.658;23.256;2023-03-03T07:35:36;93726.16;;;5.15;90.05
41690;BME280;27372;42.658;23.256;2023-03-03T07:38:23;93721.34;;;5.25;89.71
41690;BME280;27372;42.658;23.256;2023-03-03T07:40:54;93721.16;;;5.13;90.72
41690;BME280;27372;42.658;23.256;2023-03-03T07:48:44;93722.53;;;5.36;89.62
41690;BME280;27372;42.658;23.256;2023-03-03T07:51:38;93715.09;;;5.40;89.51
41690;BME280;27372;42.658;23.256;2023-03-03T07:56:56;93708.59;;;5.69;89.55
41690;BME280;27372;42.658;23.256;2023-03-03T07:59:26;93707.78;;;5.69;88.33
41690;BME280;27372;42.658;23.256;2023-03-03T08:01:54;93706.16;;;5.74;88.44
41690;BME280;27372;42.658;23.256;2023-03-03T08:04:28;93713.97;;;5.74;88.27
41690;BME280;27372;42.658;23.256;2023-03-03T08:06:59;93707.75;;;5.75;87.41
41690;BME280;27372;42.658;23.256;2023-03-03T08:11:58;93715.09;;;5.85;87.65
41690;BME280;27372;42.658;23.256;2023-03-03T08:14:33;93715.31;;;5.84;86.36
41690;BME280;27372;42.658;23.256;2023-03-03T08:16:59;93721.50;;;5.89;87.30
41690;BME280;27372;42.658;23.256;2023-03-03T08:19:25;93721.47;;;6.03;87.18
41690;BME280;27372;42.658;23.256;2023-03-03T08:21:58;93716.88;;;6.05;86.50
41690;BME280;27372;42.658;23.256;2023-03-03T08:24:25;93709.56;;;6.14;85.50
41690;BME280;27372;42.658;23.256;2023-03-03T08:26:50;93706.63;;;5.97;86.17
41690;BME280;27372;42.658;23.256;2023-03-03T08:29:15;93697.81;;;6.04;86.56
41690;BME280;27372;42.658;23.256;2023-03-03T08:31:41;93704.66;;;6.31;86.50
41690;BME280;27372;42.658;23.256;2023-03-03T08:34:06;93706.63;;;6.35;86.07
41690;BME280;27372;42.658;23.256;2023-03-03T08:36:32;93704.88;;;6.29;85.89
41690;BME280;27372;42.658;23.256;2023-03-03T08:38:57;93696.72;;;6.19;85.45
41690;BME280;27372;42.658;23.256;2023-03-03T08:41:23;93698.16;;;6.40;86.32
41690;BME280;27372;42.658;23.256;2023-03-03T08:43:48;93699.47;;;6.56;85.53
41690;BME280;27372;42.658;23.256;2023-03-03T08:46:13;93707.19;;;6.70;84.20
41690;BME280;27372;42.658;23.256;2023-03-03T08:48:39;93705.41;;;6.63;82.45
41690;BME280;27372;42.658;23.256;2023-03-03T08:51:04;93702.03;;;6.63;82.92
41690;BME280;27372;42.658;23.256;2023-03-03T08:53:30;93707.06;;;6.58;83.03
41690;BME280;27372;42.658;23.256;2023-03-03T08:55:58;93688.34;;;6.67;83.81
41690;BME280;27372;42.658;23.256;2023-03-03T08:58:23;93694.00;;;6.83;83.42
41690;BME280;27372;42.658;23.256;2023-03-03T09:00:49;93703.06;;;6.80;82.14
41690;BME280;27372;42.658;23.256;2023-03-03T09:03:14;93712.09;;;6.84;82.48
41690;BME280;27372;42.658;23.256;2023-03-03T09:05:40;93707.19;;;6.95;84.03
41690;BME280;27372;42.658;23.256;2023-03-03T09:08:06;93700.81;;;7.28;83.56
41690;BME280;27372;42.658;23.256;2023-03-03T09:10:32;93697.59;;;7.07;81.86
41690;BME280;27372;42.658;23.256;2023-03-03T09:13:07;93701.63;;;7.10;81.71
41690;BME280;27372;42.658;23.256;2023-03-03T09:15:37;93693.91;;;7.34;80.37
41690;BME280;27372;42.658;23.256;2023-03-03T09:18:23;93691.69;;;7.37;81.30
41690;BME280;27372;42.658;23.256;2023-03-03T09:20:52;93696.63;;;7.27;80.84
41690;BME280;27372;42.658;23.256;2023-03-03T09:23:34;93698.94;;;7.35;80.29
41690;BME280;27372;42.658;23.256;2023-03-03T09:26:26;93701.69;;;7.40;80.65
41690;BME280;27372;42.658;23.256;2023-03-03T09:31:44;93697.53;;;7.33;79.27
41690;BME280;27372;42.658;23.256;2023-03-03T09:36:43;93694.22;;;7.44;81.34
41690;BME280;27372;42.658;23.256;2023-03-03T09:39:20;93692.53;;;7.31;81.65
41690;BME280;27372;42.658;23.256;2023-03-03T09:44:45;93713.16;;;7.76;80.89
41690;BME280;27372;42.658;23.256;2023-03-03T09:49:54;93711.28;;;7.96;79.46
41690;BME280;27372;42.658;23.256;2023-03-03T09:52:55;93711.28;;;7.96;78.76
41690;BME280;27372;42.658;23.256;2023-03-03T10:07:09;93701.69;;;7.40;81.55
41690;BME280;27372;42.658;23.256;2023-03-03T10:12:53;93703.94;;;7.37;83.52
41690;BME280;27372;42.658;23.256;2023-03-03T10:18:34;93695.59;;;7.65;82.73
41690;BME280;27372;42.658;23.256;2023-03-03T10:26:47;93686.81;;;7.59;80.85
41690;BME280;27372;42.658;23.256;2023-03-03T10:29:36;93687.09;;;7.70;81.23
41690;BME280;27372;42.658;23.256;2023-03-03T10:32:31;93689.28;;;7.73;81.33
41690;BME280;27372;42.658;23.256;2023-03-03T10:35:21;93680.22;;;7.57;82.04
41690;BME280;27372;42.658;23.256;2023-03-03T10:40:37;93677.88;;;7.49;83.36
41690;BME280;27372;42.658;23.256;2023-03-03T10:50:53;93674.88;;;7.64;81.46
41690;BME280;27372;42.658;23.256;2023-03-03T11:04:44;93663.75;;;7.01;85.23
41690;BME280;27372;42.658;23.256;2023-03-03T11:07:23;93668.31;;;7.24;84.35
41690;BME280;27372;42.658;23.256;2023-03-03T11:10:18;93655.59;;;7.46;84.04
41690;BME280;27372;42.658;23.256;2023-03-03T11:15:39;93650.13;;;7.66;83.53
41690;BME280;27372;42.658;23.256;2023-03-03T11:18:16;93635.94;;;7.43;84.03
41690;BME280;27372;42.658;23.256;2023-03-03T11:20:57;93637.41;;;7.70;83.41
41690;BME280;27372;42.658;23.256;2023-03-03T11:34:53;93643.50;;;7.82;83.78
41690;BME280;27372;42.658;23.256;2023-03-03T11:37:42;93645.69;;;7.36;84.91
41690;BME280;27372;42.658;23.256;2023-03-03T11:40:18;93635.50;;;7.28;85.93
41690;BME280;27372;42.658;23.256;2023-03-03T11:45:28;93620.63;;;7.47;85.62
41690;BME280;27372;42.658;23.256;2023-03-03T11:50:46;93630.91;;;7.60;84.96
41690;BME280;27372;42.658;23.256;2023-03-03T11:56:21;93619.03;;;7.76;84.30
41690;BME280;27372;42.658;23.256;2023-03-03T11:58:59;93630.22;;;7.96;83.24
41690;BME280;27372;42.658;23.256;2023-03-03T12:04:46;93626.38;;;7.68;84.26
41690;BME280;27372;42.658;23.256;2023-03-03T12:12:37;93618.94;;;7.53;87.51
41690;BME280;27372;42.658;23.256;2023-03-03T12:18:09;93632.38;;;7.87;87.71
41690;BME280;27372;42.658;23.256;2023-03-03T12:26:01;93617.09;;;7.53;87.21
41690;BME280;27372;42.658;23.256;2023-03-03T12:28:37;93620.25;;;7.43;87.64
41690;BME280;27372;42.658;23.256;2023-03-03T12:31:42;93620.34;;;7.37;89.38
41690;BME280;27372;42.658;23.256;2023-03-03T12:34:20;93626.94;;;7.39;89.18
41690;BME280;27372;42.658;23.256;2023-03-03T12:39:46;93625.34;;;7.20;91.56
41690;BME280;27372;42.658;23.256;2023-03-03T13:03:55;93610.03;;;7.23;93.96
41690;BME280;27372;42.658;23.256;2023-03-03T13:06:31;93600.69;;;7.15;93.26
41690;BME280;27372;42.658;23.256;2023-03-03T13:25:55;93612.22;;;7.08;91.56
41690;BME280;27372;42.658;23.256;2023-03-03T13:28:39;93606.44;;;7.06;92.16
41690;BME280;27372;42.658;23.256;2023-03-03T13:31:21;93617.47;;;7.08;93.12
41690;BME280;27372;42.658;23.256;2023-03-03T13:33:55;93612.72;;;6.98;93.14
41690;BME280;27372;42.658;23.256;2023-03-03T13:36:24;93608.75;;;6.95;92.17
41690;BME280;27372;42.658;23.256;2023-03-03T13:38:59;93619.19;;;6.77;94.14
41690;BME280;27372;42.658;23.256;2023-03-03T13:41:56;93612.13;;;6.77;93.65
41690;BME280;27372;42.658;23.256;2023-03-03T13:44:39;93619.13;;;6.83;94.50
41690;BME280;27372;42.658;23.256;2023-03-03T13:47:25;93604.22;;;6.65;94.00
41690;BME280;27372;42.658;23.256;2023-03-03T13:50:24;93607.06;;;6.64;93.09
41690;BME280;27372;42.658;23.256;2023-03-03T14:01:21;93610.31;;;7.34;91.12
41690;BME280;27372;42.658;23.256;2023-03-03T14:03:56;93617.59;;;7.32;90.41
41690;BME280;27372;42.658;23.256;2023-03-03T14:06:28;93610.22;;;7.10;91.49
41690;BME280;27372;42.658;23.256;2023-03-03T14:09:33;93613.78;;;7.46;90.37
41690;BME280;27372;42.658;23.256;2023-03-03T14:12:28;93614.75;;;7.64;89.90
41690;BME280;27372;42.658;23.256;2023-03-03T14:15:08;93611.47;;;7.68;89.14
41690;BME280;27372;42.658;23.256;2023-03-03T14:20:46;93605.34;;;7.63;88.06
41690;BME280;27372;42.658;23.256;2023-03-03T14:26:10;93599.34;;;7.74;88.33
41690;BME280;27372;42.658;23.256;2023-03-03T14:29:04;93597.47;;;7.81;88.83
41690;BME280;27372;42.658;23.256;2023-03-03T14:31:41;93602.63;;;8.00;88.51
41690;BME280;27372;42.658;23.256;2023-03-03T14:36:39;93594.34;;;8.03;88.46
41690;BME280;27372;42.658;23.256;2023-03-03T14:41:59;93590.66;;;7.92;88.43
41690;BME280;27372;42.658;23.256;2023-03-03T14:44:45;93592.75;;;8.14;88.53
41690;BME280;27372;42.658;23.256;2023-03-03T14:47:22;93591.56;;;7.98;88.54
41690;BME280;27372;42.658;23.256;2023-03-03T14:49:49;93593.84;;;8.06;87.48
41690;BME280;27372;42.658;23.256;2023-03-03T14:54:44;93586.72;;;8.13;87.40
41690;BME280;27372;42.658;23.256;2023-03-03T15:05:49;93580.34;;;8.09;87.81
41690;BME280;27372;42.658;23.256;2023-03-03T15:08:14;93588.44;;;8.07;88.02
41690;BME280;27372;42.658;23.256;2023-03-03T15:10:44;93580.19;;;7.92;88.34
41690;BME280;27372;42.658;23.256;2023-03-03T15:18:33;93587.84;;;7.93;87.36
41690;BME280;27372;42.658;23.256;2023-03-03T15:21:15;93592.06;;;8.06;87.69
41690;BME280;27372;42.658;23.256;2023-03-03T15:24:24;93592.31;;;8.17;86.30
41690;BME280;27372;42.658;23.256;2023-03-03T15:26:55;93584.28;;;7.88;87.16
41690;BME280;27372;42.658;23.256;2023-03-03T15:29:29;93594.25;;;7.79;88.80
41690;BME280;27372;42.658;23.256;2023-03-03T15:51:16;93619.72;;;7.84;87.98
41690;BME280;27372;42.658;23.256;2023-03-03T15:53:57;93615.53;;;7.83;87.84
41690;BME280;27372;42.658;23.256;2023-03-03T16:02:23;93620.03;;;7.45;87.61
41690;BME280;27372;42.658;23.256;2023-03-03T16:05:00;93610.78;;;7.30;88.67
41690;BME280;27372;42.658;23.256;2023-03-03T16:10:14;93626.38;;;7.00;91.03
41690;BME280;27372;42.658;23.256;2023-03-03T16:15:20;93633.91;;;6.90;91.99
41690;BME280;27372;42.658;23.256;2023-03-03T16:23:36;93637.63;;;7.38;91.26
41690;BME280;27372;42.658;23.256;2023-03-03T16:26:09;93630.13;;;7.41;90.60
41690;BME280;27372;42.658;23.256;2023-03-03T16:28:42;93631.72;;;7.42;89.93
41690;BME280;27372;42.658;23.256;2023-03-03T16:31:22;93622.31;;;7.23;90.58
41690;BME280;27372;42.658;23.256;2023-03-03T16:34:06;93633.00;;;7.21;90.72
41690;BME280;27372;42.658;23.256;2023-03-03T16:42:31;93647.00;;;7.27;90.62
41690;BME280;27372;42.658;23.256;2023-03-03T16:48:21;93652.03;;;7.59;89.24
41690;BME280;27372;42.658;23.256;2023-03-03T16:53:47;93666.66;;;7.29;90.21
41690;BME280;27372;42.658;23.256;2023-03-03T16:56:20;93669.63;;;7.33;88.96
41690;BME280;27372;42.658;23.256;2023-03-03T17:07:30;93663.44;;;7.27;89.49
41690;BME280;27372;42.658;23.256;2023-03-03T17:13:34;93674.03;;;7.33;89.79
41690;BME280;27372;42.658;23.256;2023-03-03T17:29:45;93689.13;;;6.43;95.81
41690;BME280;27372;42.658;23.256;2023-03-03T17:35:20;93690.63;;;6.57;95.28
41690;BME280;27372;42.658;23.256;2023-03-03T17:38:07;93691.34;;;6.64;94.08
41690;BME280;27372;42.658;23.256;2023-03-03T17:40:45;93696.91;;;6.75;94.11
41690;BME280;27372;42.658;23.256;2023-03-03T17:46:02;93706.19;;;6.71;95.01
41690;BME280;27372;42.658;23.256;2023-03-03T17:49:09;93710.81;;;6.68;94.39
41690;BME280;27372;42.658;23.256;2023-03-03T17:52:05;93721.34;;;6.80;93.44
41690;BME280;27372;42.658;23.256;2023-03-03T18:19:44;93719.84;;;6.09;94.77
41690;BME280;27372;42.658;23.256;2023-03-03T18:22:53;93727.91;;;5.94;94.77
41690;BME280;27372;42.658;23.256;2023-03-03T18:25:22;93724.69;;;5.98;94.13
41690;BME280;27372;42.658;23.256;2023-03-03T18:30:30;93737.66;;;6.12;94.40
41690;BME280;27372;42.658;23.256;2023-03-03T18:33:10;93746.69;;;6.16;94.75